sensor_id;sensor_type;location;lat;lon;timestamp;temperature;humidity
56725;DHT22;42608;52.776;6.968;2022-08-25T00:00:19;22.00;99.90
56725;DHT22;42608;52.776;6.968;2022-08-25T00:02:45;21.90;99.90
56725;DHT22;42608;52.776;6.968;2022-08-25T00:05:10;21.90;99.90
56725;DHT22;42608;52.776;6.968;2022-08-25T00:07:36;21.90;99.90
56725;DHT22;42608;52.776;6.968;2022-08-25T00:10:03;21.90;99.90
56725;DHT22;42608;52.776;6.968;2022-08-25T00:12:28;21.70;99.90
56725;DHT22;42608;52.776;6.968;2022-08-25T00:14:54;21.70;99.90
56725;DHT22;42608;52.776;6.968;2022-08-25T00:17:19;21.60;99.90
56725;DHT22;42608;52.776;6.968;2022-08-25T00:19:45;21.70;99.90
56725;DHT22;42608;52.776;6.968;2022-08-25T00:22:11;21.60;99.90
56725;DHT22;42608;52.776;6.968;2022-08-25T00:24:36;21.60;99.90
56725;DHT22;42608;52.776;6.968;2022-08-25T00:27:02;21.50;99.90
56725;DHT22;42608;52.776;6.968;2022-08-25T00:29:28;21.50;99.90
56725;DHT22;42608;52.776;6.968;2022-08-25T00:31:54;21.40;99.90
56725;DHT22;42608;52.776;6.968;2022-08-25T00:34:22;21.40;99.90
56725;DHT22;42608;52.776;6.968;2022-08-25T00:36:48;21.40;99.90
56725;DHT22;42608;52.776;6.968;2022-08-25T00:39:16;21.40;99.90
56725;DHT22;42608;52.776;6.968;2022-08-25T00:41:42;21.40;99.90
56725;DHT22;42608;52.776;6.968;2022-08-25T00:44:08;21.30;99.90
56725;DHT22;42608;52.776;6.968;2022-08-25T00:46:42;21.30;99.90
56725;DHT22;42608;52.776;6.968;2022-08-25T00:49:10;21.30;99.90
56725;DHT22;42608;52.776;6.968;2022-08-25T00:51:49;21.30;99.90
56725;DHT22;42608;52.776;6.968;2022-08-25T00:54:16;21.20;99.90
56725;DHT22;42608;52.776;6.968;2022-08-25T00:56:43;21.20;99.90
56725;DHT22;42608;52.776;6.968;2022-08-25T00:59:09;21.10;99.90
56725;DHT22;42608;52.776;6.968;2022-08-25T01:01:35;21.10;99.90
56725;DHT22;42608;52.776;6.968;2022-08-25T01:04:00;21.10;99.90
56725;DHT22;42608;52.776;6.968;2022-08-25T01:06:27;21.10;99.90
56725;DHT22;42608;52.776;6.968;2022-08-25T01:08:54;21.10;99.90
56725;DHT22;42608;52.776;6.968;2022-08-25T01:11:20;21.00;99.90
56725;DHT22;42608;52.776;6.968;2022-08-25T01:13:47;21.00;99.90
56725;DHT22;42608;52.776;6.968;2022-08-25T01:16:14;21.00;99.90
56725;DHT22;42608;52.776;6.968;2022-08-25T01:18:50;21.00;99.90
56725;DHT22;42608;52.776;6.968;2022-08-25T01:21:17;21.00;99.90
56725;DHT22;42608;52.776;6.968;2022-08-25T01:23:43;21.00;99.90
56725;DHT22;42608;52.776;6.968;2022-08-25T01:26:14;21.00;99.90
56725;DHT22;42608;52.776;6.968;2022-08-25T01:28:40;21.00;99.90
56725;DHT22;42608;52.776;6.968;2022-08-25T01:31:26;20.90;99.90
56725;DHT22;42608;52.776;6.968;2022-08-25T01:33:51;20.90;99.90
56725;DHT22;42608;52.776;6.968;2022-08-25T01:36:18;20.90;99.90
56725;DHT22;42608;52.776;6.968;2022-08-25T01:38:44;20.90;99.90
56725;DHT22;42608;52.776;6.968;2022-08-25T01:41:09;20.90;99.90
56725;DHT22;42608;52.776;6.968;2022-08-25T01:43:36;20.90;99.90
56725;DHT22;42608;52.776;6.968;2022-08-25T01:46:02;20.80;99.90
56725;DHT22;42608;52.776;6.968;2022-08-25T01:48:28;20.80;99.90
56725;DHT22;42608;52.776;6.968;2022-08-25T01:50:54;20.80;99.90
56725;DHT22;42608;52.776;6.968;2022-08-25T01:53:26;20.80;99.90
56725;DHT22;42608;52.776;6.968;2022-08-25T01:55:52;20.80;99.90
56725;DHT22;42608;52.776;6.968;2022-08-25T01:58:29;20.80;99.90
56725;DHT22;42608;52.776;6.968;2022-08-25T02:00:56;20.70;99.90
56725;DHT22;42608;52.776;6.968;2022-08-25T02:03:23;20.70;99.90
56725;DHT22;42608;52.776;6.968;2022-08-25T02:05:49;20.70;99.90
56725;DHT22;42608;52.776;6.968;2022-08-25T02:08:15;20.70;99.90
56725;DHT22;42608;52.776;6.968;2022-08-25T02:10:42;20.70;99.90
56725;DHT22;42608;52.776;6.968;2022-08-25T02:13:08;20.60;99.90
56725;DHT22;42608;52.776;6.968;2022-08-25T02:15:33;20.60;99.90
56725;DHT22;42608;52.776;6.968;2022-08-25T02:17:59;20.60;99.90
56725;DHT22;42608;52.776;6.968;2022-08-25T02:20:25;20.60;99.90
56725;DHT22;42608;52.776;6.968;2022-08-25T02:22:51;20.60;99.90
56725;DHT22;42608;52.776;6.968;2022-08-25T02:25:17;20.50;99.90
56725;DHT22;42608;52.776;6.968;2022-08-25T02:27:43;20.50;99.90
56725;DHT22;42608;52.776;6.968;2022-08-25T02:30:10;20.50;99.90
56725;DHT22;42608;52.776;6.968;2022-08-25T02:32:38;20.50;99.90
56725;DHT22;42608;52.776;6.968;2022-08-25T02:35:04;20.60;99.90
56725;DHT22;42608;52.776;6.968;2022-08-25T02:37:30;20.50;99.90
56725;DHT22;42608;52.776;6.968;2022-08-25T02:39:56;20.50;99.90
56725;DHT22;42608;52.776;6.968;2022-08-25T02:42:21;20.50;99.90
56725;DHT22;42608;52.776;6.968;2022-08-25T02:44:48;20.50;99.90
56725;DHT22;42608;52.776;6.968;2022-08-25T02:47:14;20.50;99.90
56725;DHT22;42608;52.776;6.968;2022-08-25T02:49:40;20.40;99.90
56725;DHT22;42608;52.776;6.968;2022-08-25T02:52:06;20.40;99.90
56725;DHT22;42608;52.776;6.968;2022-08-25T02:54:33;20.50;99.90
56725;DHT22;42608;52.776;6.968;2022-08-25T02:56:58;20.40;99.90
56725;DHT22;42608;52.776;6.968;2022-08-25T02:59:24;20.40;99.90
56725;DHT22;42608;52.776;6.968;2022-08-25T03:01:50;20.40;99.90
56725;DHT22;42608;52.776;6.968;2022-08-25T03:04:15;20.40;99.90
56725;DHT22;42608;52.776;6.968;2022-08-25T03:06:41;20.40;99.90
56725;DHT22;42608;52.776;6.968;2022-08-25T03:09:07;20.40;99.90
56725;DHT22;42608;52.776;6.968;2022-08-25T03:11:32;20.40;99.90
56725;DHT22;42608;52.776;6.968;2022-08-25T03:13:58;20.40;99.90
56725;DHT22;42608;52.776;6.968;2022-08-25T03:16:25;20.40;99.90
56725;DHT22;42608;52.776;6.968;2022-08-25T03:18:51;20.30;99.90
56725;DHT22;42608;52.776;6.968;2022-08-25T03:21:17;20.30;99.90
56725;DHT22;42608;52.776;6.968;2022-08-25T03:23:43;20.30;99.90
56725;DHT22;42608;52.776;6.968;2022-08-25T03:26:09;20.30;99.90
56725;DHT22;42608;52.776;6.968;2022-08-25T03:28:53;20.30;99.90
56725;DHT22;42608;52.776;6.968;2022-08-25T03:31:22;20.30;99.90
56725;DHT22;42608;52.776;6.968;2022-08-25T03:33:49;20.20;99.90
56725;DHT22;42608;52.776;6.968;2022-08-25T03:36:14;20.10;99.90
56725;DHT22;42608;52.776;6.968;2022-08-25T03:38:40;20.10;99.90
56725;DHT22;42608;52.776;6.968;2022-08-25T03:41:13;20.10;99.90
56725;DHT22;42608;52.776;6.968;2022-08-25T03:43:39;20.00;99.90
56725;DHT22;42608;52.776;6.968;2022-08-25T03:46:05;20.00;99.90
56725;DHT22;42608;52.776;6.968;2022-08-25T03:48:30;20.00;99.90
56725;DHT22;42608;52.776;6.968;2022-08-25T03:50:56;20.00;99.90
56725;DHT22;42608;52.776;6.968;2022-08-25T03:53:22;19.90;99.90
56725;DHT22;42608;52.776;6.968;2022-08-25T03:55:48;19.90;99.90
56725;DHT22;42608;52.776;6.968;2022-08-25T03:58:13;19.80;99.90
56725;DHT22;42608;52.776;6.968;2022-08-25T04:00:39;19.80;99.90
56725;DHT22;42608;52.776;6.968;2022-08-25T04:03:05;19.80;99.90
56725;DHT22;42608;52.776;6.968;2022-08-25T04:05:31;19.80;99.90
56725;DHT22;42608;52.776;6.968;2022-08-25T04:07:56;19.70;99.90
56725;DHT22;42608;52.776;6.968;2022-08-25T04:10:22;19.70;99.90
56725;DHT22;42608;52.776;6.968;2022-08-25T04:12:47;19.70;99.90
56725;DHT22;42608;52.776;6.968;2022-08-25T04:15:13;19.70;99.90
56725;DHT22;42608;52.776;6.968;2022-08-25T04:17:39;19.70;99.90
56725;DHT22;42608;52.776;6.968;2022-08-25T04:20:05;19.70;99.90
56725;DHT22;42608;52.776;6.968;2022-08-25T04:22:32;19.60;99.90
56725;DHT22;42608;52.776;6.968;2022-08-25T04:24:58;19.60;99.90
56725;DHT22;42608;52.776;6.968;2022-08-25T04:27:23;19.60;99.90
56725;DHT22;42608;52.776;6.968;2022-08-25T04:29:49;19.60;99.90
56725;DHT22;42608;52.776;6.968;2022-08-25T04:32:15;19.60;99.90
56725;DHT22;42608;52.776;6.968;2022-08-25T04:34:40;19.60;99.90
56725;DHT22;42608;52.776;6.968;2022-08-25T04:37:07;19.60;99.90
56725;DHT22;42608;52.776;6.968;2022-08-25T04:39:33;19.60;99.90
56725;DHT22;42608;52.776;6.968;2022-08-25T04:41:59;19.60;99.90
56725;DHT22;42608;52.776;6.968;2022-08-25T04:44:25;19.50;99.90
56725;DHT22;42608;52.776;6.968;2022-08-25T04:46:51;19.50;99.90
56725;DHT22;42608;52.776;6.968;2022-08-25T04:49:16;19.50;99.90
56725;DHT22;42608;52.776;6.968;2022-08-25T04:51:42;19.50;99.90
56725;DHT22;42608;52.776;6.968;2022-08-25T04:54:09;19.40;99.90
56725;DHT22;42608;52.776;6.968;2022-08-25T04:56:34;19.40;99.90
56725;DHT22;42608;52.776;6.968;2022-08-25T04:59:04;19.40;99.90
56725;DHT22;42608;52.776;6.968;2022-08-25T05:01:30;19.40;99.90
56725;DHT22;42608;52.776;6.968;2022-08-25T05:04:00;19.40;99.90
56725;DHT22;42608;52.776;6.968;2022-08-25T05:06:26;19.30;99.90
56725;DHT22;42608;52.776;6.968;2022-08-25T05:08:53;19.30;99.90
56725;DHT22;42608;52.776;6.968;2022-08-25T05:11:20;19.40;99.90
56725;DHT22;42608;52.776;6.968;2022-08-25T05:13:46;19.30;99.90
56725;DHT22;42608;52.776;6.968;2022-08-25T05:16:12;19.30;99.90
56725;DHT22;42608;52.776;6.968;2022-08-25T05:18:38;19.40;99.90
56725;DHT22;42608;52.776;6.968;2022-08-25T05:21:04;19.40;99.90
56725;DHT22;42608;52.776;6.968;2022-08-25T05:23:30;19.40;99.90
56725;DHT22;42608;52.776;6.968;2022-08-25T05:25:59;19.40;99.90
56725;DHT22;42608;52.776;6.968;2022-08-25T05:28:25;19.40;99.90
56725;DHT22;42608;52.776;6.968;2022-08-25T05:30:56;19.40;99.90
56725;DHT22;42608;52.776;6.968;2022-08-25T05:33:21;19.40;99.90
56725;DHT22;42608;52.776;6.968;2022-08-25T05:35:47;19.40;99.90
56725;DHT22;42608;52.776;6.968;2022-08-25T05:38:12;19.40;99.90
56725;DHT22;42608;52.776;6.968;2022-08-25T05:40:38;19.40;99.90
56725;DHT22;42608;52.776;6.968;2022-08-25T05:43:03;19.40;99.90
56725;DHT22;42608;52.776;6.968;2022-08-25T05:45:29;19.40;99.90
56725;DHT22;42608;52.776;6.968;2022-08-25T05:47:56;19.50;99.90
56725;DHT22;42608;52.776;6.968;2022-08-25T05:50:22;19.50;99.90
56725;DHT22;42608;52.776;6.968;2022-08-25T05:52:48;19.50;99.90
56725;DHT22;42608;52.776;6.968;2022-08-25T05:55:14;19.60;99.90
56725;DHT22;42608;52.776;6.968;2022-08-25T05:57:40;19.60;99.90
56725;DHT22;42608;52.776;6.968;2022-08-25T06:00:06;19.60;99.90
56725;DHT22;42608;52.776;6.968;2022-08-25T06:02:32;19.70;99.90
56725;DHT22;42608;52.776;6.968;2022-08-25T06:05:10;19.70;99.90
56725;DHT22;42608;52.776;6.968;2022-08-25T06:07:36;19.80;99.90
56725;DHT22;42608;52.776;6.968;2022-08-25T06:10:03;19.80;99.90
56725;DHT22;42608;52.776;6.968;2022-08-25T06:12:29;19.90;99.90
56725;DHT22;42608;52.776;6.968;2022-08-25T06:14:57;20.00;99.90
56725;DHT22;42608;52.776;6.968;2022-08-25T06:17:22;20.00;99.90
56725;DHT22;42608;52.776;6.968;2022-08-25T06:19:48;20.10;99.90
56725;DHT22;42608;52.776;6.968;2022-08-25T06:22:14;20.20;99.90
56725;DHT22;42608;52.776;6.968;2022-08-25T06:24:39;20.20;99.90
56725;DHT22;42608;52.776;6.968;2022-08-25T06:27:05;20.30;99.90
56725;DHT22;42608;52.776;6.968;2022-08-25T06:29:30;20.40;99.90
56725;DHT22;42608;52.776;6.968;2022-08-25T06:31:56;20.40;99.90
56725;DHT22;42608;52.776;6.968;2022-08-25T06:34:22;20.50;99.90
56725;DHT22;42608;52.776;6.968;2022-08-25T06:36:47;20.60;99.90
56725;DHT22;42608;52.776;6.968;2022-08-25T06:39:14;20.70;99.90
56725;DHT22;42608;52.776;6.968;2022-08-25T06:41:40;20.80;99.90
56725;DHT22;42608;52.776;6.968;2022-08-25T06:44:06;20.80;99.90
56725;DHT22;42608;52.776;6.968;2022-08-25T06:46:32;20.90;99.90
56725;DHT22;42608;52.776;6.968;2022-08-25T06:48:58;21.00;99.90
56725;DHT22;42608;52.776;6.968;2022-08-25T06:51:24;21.00;99.90
56725;DHT22;42608;52.776;6.968;2022-08-25T06:53:50;21.20;99.90
56725;DHT22;42608;52.776;6.968;2022-08-25T06:56:17;21.20;99.90
56725;DHT22;42608;52.776;6.968;2022-08-25T06:58:43;21.30;99.90
56725;DHT22;42608;52.776;6.968;2022-08-25T07:01:10;21.40;99.90
56725;DHT22;42608;52.776;6.968;2022-08-25T07:03:36;21.50;99.90
56725;DHT22;42608;52.776;6.968;2022-08-25T07:06:01;21.60;99.90
56725;DHT22;42608;52.776;6.968;2022-08-25T07:08:27;21.60;99.90
56725;DHT22;42608;52.776;6.968;2022-08-25T07:10:53;21.70;99.90
56725;DHT22;42608;52.776;6.968;2022-08-25T07:13:18;21.80;99.90
56725;DHT22;42608;52.776;6.968;2022-08-25T07:15:44;21.80;99.90
56725;DHT22;42608;52.776;6.968;2022-08-25T07:18:10;21.90;99.90
56725;DHT22;42608;52.776;6.968;2022-08-25T07:20:36;21.90;99.90
56725;DHT22;42608;52.776;6.968;2022-08-25T07:23:02;22.00;99.90
56725;DHT22;42608;52.776;6.968;2022-08-25T07:25:27;22.10;99.90
56725;DHT22;42608;52.776;6.968;2022-08-25T07:27:53;22.10;99.90
56725;DHT22;42608;52.776;6.968;2022-08-25T07:30:19;22.20;99.90
56725;DHT22;42608;52.776;6.968;2022-08-25T07:32:45;22.30;99.90
56725;DHT22;42608;52.776;6.968;2022-08-25T07:35:10;22.40;99.90
56725;DHT22;42608;52.776;6.968;2022-08-25T07:37:44;22.40;99.90
56725;DHT22;42608;52.776;6.968;2022-08-25T07:40:14;22.50;99.90
56725;DHT22;42608;52.776;6.968;2022-08-25T07:42:42;22.60;99.90
56725;DHT22;42608;52.776;6.968;2022-08-25T07:45:08;22.70;99.90
56725;DHT22;42608;52.776;6.968;2022-08-25T07:47:35;22.70;99.90
56725;DHT22;42608;52.776;6.968;2022-08-25T07:50:00;22.80;99.90
56725;DHT22;42608;52.776;6.968;2022-08-25T07:52:26;22.90;99.90
56725;DHT22;42608;52.776;6.968;2022-08-25T07:54:52;23.00;99.90
56725;DHT22;42608;52.776;6.968;2022-08-25T07:57:19;23.00;99.90
56725;DHT22;42608;52.776;6.968;2022-08-25T07:59:46;23.10;99.90
56725;DHT22;42608;52.776;6.968;2022-08-25T08:02:12;23.30;99.90
56725;DHT22;42608;52.776;6.968;2022-08-25T08:04:38;23.30;99.90
56725;DHT22;42608;52.776;6.968;2022-08-25T08:07:04;23.40;99.90
56725;DHT22;42608;52.776;6.968;2022-08-25T08:09:29;23.40;99.90
56725;DHT22;42608;52.776;6.968;2022-08-25T08:11:55;23.50;99.90
56725;DHT22;42608;52.776;6.968;2022-08-25T08:14:22;23.50;99.90
56725;DHT22;42608;52.776;6.968;2022-08-25T08:16:47;23.60;99.90
56725;DHT22;42608;52.776;6.968;2022-08-25T08:19:14;23.60;99.90
56725;DHT22;42608;52.776;6.968;2022-08-25T08:21:40;23.70;99.90
56725;DHT22;42608;52.776;6.968;2022-08-25T08:24:06;23.70;99.90
56725;DHT22;42608;52.776;6.968;2022-08-25T08:26:31;23.80;99.90
56725;DHT22;42608;52.776;6.968;2022-08-25T08:28:57;23.90;99.90
56725;DHT22;42608;52.776;6.968;2022-08-25T08:31:23;24.00;99.90
56725;DHT22;42608;52.776;6.968;2022-08-25T08:33:51;24.10;99.90
56725;DHT22;42608;52.776;6.968;2022-08-25T08:36:17;24.20;99.90
56725;DHT22;42608;52.776;6.968;2022-08-25T08:38:44;24.30;99.90
56725;DHT22;42608;52.776;6.968;2022-08-25T08:49:25;24.40;99.90
56725;DHT22;42608;52.776;6.968;2022-08-25T08:51:53;24.60;99.90
56725;DHT22;42608;52.776;6.968;2022-08-25T08:54:22;24.60;99.50
56725;DHT22;42608;52.776;6.968;2022-08-25T08:56:50;24.70;99.50
56725;DHT22;42608;52.776;6.968;2022-08-25T08:59:23;24.80;99.20
56725;DHT22;42608;52.776;6.968;2022-08-25T09:01:59;24.90;98.40
56725;DHT22;42608;52.776;6.968;2022-08-25T09:04:41;25.10;97.80
56725;DHT22;42608;52.776;6.968;2022-08-25T09:07:10;25.20;98.00
56725;DHT22;42608;52.776;6.968;2022-08-25T09:09:36;25.30;97.20
56725;DHT22;42608;52.776;6.968;2022-08-25T09:14:53;25.50;95.40
56725;DHT22;42608;52.776;6.968;2022-08-25T09:25:24;25.70;92.80
56725;DHT22;42608;52.776;6.968;2022-08-25T09:30:35;25.80;91.80
56725;DHT22;42608;52.776;6.968;2022-08-25T09:33:02;25.90;91.10
56725;DHT22;42608;52.776;6.968;2022-08-25T09:35:29;25.90;89.60
56725;DHT22;42608;52.776;6.968;2022-08-25T09:37:56;26.00;88.70
56725;DHT22;42608;52.776;6.968;2022-08-25T09:40:22;26.10;86.20
56725;DHT22;42608;52.776;6.968;2022-08-25T09:42:50;26.10;84.70
56725;DHT22;42608;52.776;6.968;2022-08-25T09:45:18;26.30;82.90
56725;DHT22;42608;52.776;6.968;2022-08-25T09:47:54;26.40;82.40
56725;DHT22;42608;52.776;6.968;2022-08-25T09:50:19;26.50;81.30
56725;DHT22;42608;52.776;6.968;2022-08-25T09:52:45;26.60;81.10
56725;DHT22;42608;52.776;6.968;2022-08-25T10:02:35;26.70;76.80
56725;DHT22;42608;52.776;6.968;2022-08-25T10:05:15;26.70;76.00
56725;DHT22;42608;52.776;6.968;2022-08-25T10:07:47;26.80;75.30
56725;DHT22;42608;52.776;6.968;2022-08-25T10:10:33;27.00;74.90
56725;DHT22;42608;52.776;6.968;2022-08-25T10:13:00;27.00;74.90
56725;DHT22;42608;52.776;6.968;2022-08-25T10:15:28;27.10;73.20
56725;DHT22;42608;52.776;6.968;2022-08-25T10:17:54;27.10;72.20
56725;DHT22;42608;52.776;6.968;2022-08-25T10:20:22;27.10;71.20
56725;DHT22;42608;52.776;6.968;2022-08-25T10:22:49;27.20;71.80
56725;DHT22;42608;52.776;6.968;2022-08-25T10:25:16;27.20;71.40
56725;DHT22;42608;52.776;6.968;2022-08-25T10:27:50;27.20;69.80
56725;DHT22;42608;52.776;6.968;2022-08-25T10:30:22;27.30;69.30
56725;DHT22;42608;52.776;6.968;2022-08-25T10:35:17;27.30;70.10
56725;DHT22;42608;52.776;6.968;2022-08-25T10:37:50;27.30;70.20
56725;DHT22;42608;52.776;6.968;2022-08-25T10:45:16;27.70;68.50
56725;DHT22;42608;52.776;6.968;2022-08-25T10:53:20;27.70;67.60
56725;DHT22;42608;52.776;6.968;2022-08-25T10:58:16;27.80;68.30
56725;DHT22;42608;52.776;6.968;2022-08-25T11:00:55;27.90;68.80
56725;DHT22;42608;52.776;6.968;2022-08-25T11:05:58;27.90;69.00
56725;DHT22;42608;52.776;6.968;2022-08-25T11:08:36;28.00;68.90
56725;DHT22;42608;52.776;6.968;2022-08-25T11:13:37;28.00;68.50
56725;DHT22;42608;52.776;6.968;2022-08-25T11:16:11;28.20;68.80
56725;DHT22;42608;52.776;6.968;2022-08-25T11:18:38;28.20;68.10
56725;DHT22;42608;52.776;6.968;2022-08-25T11:21:19;28.20;68.40
56725;DHT22;42608;52.776;6.968;2022-08-25T11:23:54;28.20;67.80
56725;DHT22;42608;52.776;6.968;2022-08-25T11:26:29;28.20;67.90
56725;DHT22;42608;52.776;6.968;2022-08-25T11:29:10;28.20;67.00
56725;DHT22;42608;52.776;6.968;2022-08-25T11:31:39;28.10;67.50
56725;DHT22;42608;52.776;6.968;2022-08-25T11:34:11;28.10;67.30
56725;DHT22;42608;52.776;6.968;2022-08-25T11:36:47;28.10;67.70
56725;DHT22;42608;52.776;6.968;2022-08-25T11:53:37;28.40;64.10
56725;DHT22;42608;52.776;6.968;2022-08-25T11:56:30;28.50;63.20
56725;DHT22;42608;52.776;6.968;2022-08-25T11:58:56;28.50;61.60
56725;DHT22;42608;52.776;6.968;2022-08-25T12:12:37;28.70;62.40
56725;DHT22;42608;52.776;6.968;2022-08-25T12:15:30;28.70;62.00
56725;DHT22;42608;52.776;6.968;2022-08-25T12:23:35;28.90;62.40
56725;DHT22;42608;52.776;6.968;2022-08-25T12:29:04;29.10;62.00
56725;DHT22;42608;52.776;6.968;2022-08-25T12:34:52;29.20;61.70
56725;DHT22;42608;52.776;6.968;2022-08-25T12:37:21;29.30;62.00
56725;DHT22;42608;52.776;6.968;2022-08-25T12:42:37;29.30;61.00
56725;DHT22;42608;52.776;6.968;2022-08-25T12:51:03;29.60;58.30
56725;DHT22;42608;52.776;6.968;2022-08-25T12:56:46;29.60;58.70
56725;DHT22;42608;52.776;6.968;2022-08-25T12:59:18;29.70;59.10
56725;DHT22;42608;52.776;6.968;2022-08-25T13:05:46;30.00;60.10
56725;DHT22;42608;52.776;6.968;2022-08-25T13:11:20;30.10;58.90
56725;DHT22;42608;52.776;6.968;2022-08-25T13:14:04;30.20;58.00
56725;DHT22;42608;52.776;6.968;2022-08-25T13:16:31;30.30;57.80
56725;DHT22;42608;52.776;6.968;2022-08-25T13:19:01;30.40;57.70
56725;DHT22;42608;52.776;6.968;2022-08-25T13:22:02;30.40;57.40
56725;DHT22;42608;52.776;6.968;2022-08-25T13:26:45;30.60;57.80
56725;DHT22;42608;52.776;6.968;2022-08-25T13:29:13;30.70;57.10
56725;DHT22;42608;52.776;6.968;2022-08-25T13:34:25;30.80;57.30
56725;DHT22;42608;52.776;6.968;2022-08-25T13:36:51;30.80;56.60
56725;DHT22;42608;52.776;6.968;2022-08-25T13:39:36;30.90;56.50
56725;DHT22;42608;52.776;6.968;2022-08-25T13:42:03;31.00;56.60
56725;DHT22;42608;52.776;6.968;2022-08-25T13:44:33;31.00;56.30
56725;DHT22;42608;52.776;6.968;2022-08-25T13:47:10;31.10;56.30
56725;DHT22;42608;52.776;6.968;2022-08-25T13:49:37;31.10;55.80
56725;DHT22;42608;52.776;6.968;2022-08-25T13:52:03;31.20;56.40
56725;DHT22;42608;52.776;6.968;2022-08-25T13:54:39;31.30;56.70
56725;DHT22;42608;52.776;6.968;2022-08-25T13:57:06;31.40;56.10
56725;DHT22;42608;52.776;6.968;2022-08-25T13:59:37;31.30;55.70
56725;DHT22;42608;52.776;6.968;2022-08-25T14:02:03;31.40;55.40
56725;DHT22;42608;52.776;6.968;2022-08-25T14:12:38;31.50;55.30
56725;DHT22;42608;52.776;6.968;2022-08-25T14:15:09;31.60;55.60
56725;DHT22;42608;52.776;6.968;2022-08-25T14:17:36;31.70;56.10
56725;DHT22;42608;52.776;6.968;2022-08-25T14:20:04;31.70;55.60
56725;DHT22;42608;52.776;6.968;2022-08-25T14:22:29;31.80;55.80
56725;DHT22;42608;52.776;6.968;2022-08-25T14:24:55;31.80;55.20
56725;DHT22;42608;52.776;6.968;2022-08-25T14:27:21;31.90;55.20
56725;DHT22;42608;52.776;6.968;2022-08-25T14:29:47;31.90;55.10
56725;DHT22;42608;52.776;6.968;2022-08-25T14:32:13;31.90;54.20
56725;DHT22;42608;52.776;6.968;2022-08-25T14:34:40;31.90;54.00
56725;DHT22;42608;52.776;6.968;2022-08-25T14:37:17;32.00;53.40
56725;DHT22;42608;52.776;6.968;2022-08-25T14:39:43;32.00;53.50
56725;DHT22;42608;52.776;6.968;2022-08-25T14:42:09;32.00;53.90
56725;DHT22;42608;52.776;6.968;2022-08-25T14:44:35;32.10;53.90
56725;DHT22;42608;52.776;6.968;2022-08-25T14:47:01;32.10;54.30
56725;DHT22;42608;52.776;6.968;2022-08-25T14:49:28;32.10;52.60
56725;DHT22;42608;52.776;6.968;2022-08-25T14:52:07;32.10;52.40
56725;DHT22;42608;52.776;6.968;2022-08-25T14:54:33;32.20;52.70
56725;DHT22;42608;52.776;6.968;2022-08-25T14:56:59;32.20;51.50
56725;DHT22;42608;52.776;6.968;2022-08-25T14:59:25;32.20;51.20
56725;DHT22;42608;52.776;6.968;2022-08-25T15:01:51;32.20;50.40
56725;DHT22;42608;52.776;6.968;2022-08-25T15:04:18;32.20;50.00
56725;DHT22;42608;52.776;6.968;2022-08-25T15:06:44;32.20;50.20
56725;DHT22;42608;52.776;6.968;2022-08-25T15:09:11;32.20;50.50
56725;DHT22;42608;52.776;6.968;2022-08-25T15:11:38;32.40;50.50
56725;DHT22;42608;52.776;6.968;2022-08-25T15:14:04;32.40;50.10
56725;DHT22;42608;52.776;6.968;2022-08-25T15:16:35;32.40;49.60
56725;DHT22;42608;52.776;6.968;2022-08-25T15:19:03;32.40;49.60
56725;DHT22;42608;52.776;6.968;2022-08-25T15:21:29;32.30;49.80
56725;DHT22;42608;52.776;6.968;2022-08-25T15:23:55;32.20;49.90
56725;DHT22;42608;52.776;6.968;2022-08-25T15:26:21;32.10;49.90
56725;DHT22;42608;52.776;6.968;2022-08-25T15:28:48;32.00;50.20
56725;DHT22;42608;52.776;6.968;2022-08-25T15:31:14;32.00;50.40
56725;DHT22;42608;52.776;6.968;2022-08-25T15:33:40;31.90;50.40
56725;DHT22;42608;52.776;6.968;2022-08-25T15:36:06;32.00;50.80
56725;DHT22;42608;52.776;6.968;2022-08-25T15:38:35;32.10;51.30
56725;DHT22;42608;52.776;6.968;2022-08-25T15:41:01;32.10;50.90
56725;DHT22;42608;52.776;6.968;2022-08-25T15:43:27;32.00;50.60
56725;DHT22;42608;52.776;6.968;2022-08-25T15:45:53;32.10;50.80
56725;DHT22;42608;52.776;6.968;2022-08-25T15:48:18;32.00;50.80
56725;DHT22;42608;52.776;6.968;2022-08-25T15:50:44;32.00;50.30
56725;DHT22;42608;52.776;6.968;2022-08-25T15:53:11;32.00;50.50
56725;DHT22;42608;52.776;6.968;2022-08-25T15:55:37;32.00;50.90
56725;DHT22;42608;52.776;6.968;2022-08-25T15:58:03;31.90;50.40
56725;DHT22;42608;52.776;6.968;2022-08-25T16:00:28;31.90;50.70
56725;DHT22;42608;52.776;6.968;2022-08-25T16:02:54;31.90;51.30
56725;DHT22;42608;52.776;6.968;2022-08-25T16:05:19;31.80;51.50
56725;DHT22;42608;52.776;6.968;2022-08-25T16:07:45;31.80;51.60
56725;DHT22;42608;52.776;6.968;2022-08-25T16:10:11;31.70;52.00
56725;DHT22;42608;52.776;6.968;2022-08-25T16:12:37;31.70;52.20
56725;DHT22;42608;52.776;6.968;2022-08-25T16:15:04;31.70;52.50
56725;DHT22;42608;52.776;6.968;2022-08-25T16:17:30;31.70;52.60
56725;DHT22;42608;52.776;6.968;2022-08-25T16:19:56;31.60;52.60
56725;DHT22;42608;52.776;6.968;2022-08-25T16:22:21;31.60;52.40
56725;DHT22;42608;52.776;6.968;2022-08-25T16:24:47;31.50;52.70
56725;DHT22;42608;52.776;6.968;2022-08-25T16:27:13;31.50;51.90
56725;DHT22;42608;52.776;6.968;2022-08-25T16:29:40;31.40;52.40
56725;DHT22;42608;52.776;6.968;2022-08-25T16:32:06;31.40;52.60
56725;DHT22;42608;52.776;6.968;2022-08-25T16:34:32;31.30;52.40
56725;DHT22;42608;52.776;6.968;2022-08-25T16:36:58;31.30;52.40
56725;DHT22;42608;52.776;6.968;2022-08-25T16:39:23;31.30;52.80
56725;DHT22;42608;52.776;6.968;2022-08-25T16:41:49;31.30;53.80
56725;DHT22;42608;52.776;6.968;2022-08-25T16:44:16;31.30;53.30
56725;DHT22;42608;52.776;6.968;2022-08-25T16:46:41;31.20;53.80
56725;DHT22;42608;52.776;6.968;2022-08-25T16:49:08;31.20;54.20
56725;DHT22;42608;52.776;6.968;2022-08-25T16:51:34;31.20;54.40
56725;DHT22;42608;52.776;6.968;2022-08-25T16:54:00;31.10;54.80
56725;DHT22;42608;52.776;6.968;2022-08-25T16:56:44;31.10;55.00
56725;DHT22;42608;52.776;6.968;2022-08-25T16:59:10;31.10;55.40
56725;DHT22;42608;52.776;6.968;2022-08-25T17:01:37;31.10;56.00
56725;DHT22;42608;52.776;6.968;2022-08-25T17:04:03;31.00;55.70
56725;DHT22;42608;52.776;6.968;2022-08-25T17:06:32;30.90;55.60
56725;DHT22;42608;52.776;6.968;2022-08-25T17:08:58;30.90;56.20
56725;DHT22;42608;52.776;6.968;2022-08-25T17:11:27;30.90;57.00
56725;DHT22;42608;52.776;6.968;2022-08-25T17:13:55;30.90;57.10
56725;DHT22;42608;52.776;6.968;2022-08-25T17:16:21;30.80;57.10
56725;DHT22;42608;52.776;6.968;2022-08-25T17:18:50;30.80;57.70
56725;DHT22;42608;52.776;6.968;2022-08-25T17:21:17;30.70;57.70
56725;DHT22;42608;52.776;6.968;2022-08-25T17:23:43;30.70;57.90
56725;DHT22;42608;52.776;6.968;2022-08-25T17:26:09;30.60;58.30
56725;DHT22;42608;52.776;6.968;2022-08-25T17:28:35;30.60;59.50
56725;DHT22;42608;52.776;6.968;2022-08-25T17:31:01;30.50;59.30